sensor_id;sensor_type;location;lat;lon;timestamp;pressure;altitude;pressure_sealevel;temperature;humidity
53932;BME280;39844;52.496;13.482;2023-01-28T00:00:34;102538.19;;;-0.10;82.94
53932;BME280;39844;52.496;13.482;2023-01-28T00:02:59;102531.13;;;-0.13;83.13
53932;BME280;39844;52.496;13.482;2023-01-28T00:05:25;102542.28;;;-0.14;83.16
53932;BME280;39844;52.496;13.482;2023-01-28T00:07:50;102549.88;;;-0.15;83.29
53932;BME280;39844;52.496;13.482;2023-01-28T00:10:16;102547.22;;;-0.17;83.72
53932;BME280;39844;52.496;13.482;2023-01-28T00:12:41;102542.84;;;-0.18;83.32
53932;BME280;39844;52.496;13.482;2023-01-28T00:15:07;102541.84;;;-0.20;83.46
53932;BME280;39844;52.496;13.482;2023-01-28T00:17:32;102539.94;;;-0.22;83.34
53932;BME280;39844;52.496;13.482;2023-01-28T00:19:57;102536.38;;;-0.24;83.48
53932;BME280;39844;52.496;13.482;2023-01-28T00:22:23;102540.53;;;-0.26;83.25
53932;BME280;39844;52.496;13.482;2023-01-28T00:24:48;102544.78;;;-0.27;83.52
53932;BME280;39844;52.496;13.482;2023-01-28T00:27:13;102548.97;;;-0.29;83.41
53932;BME280;39844;52.496;13.482;2023-01-28T00:29:39;102553.13;;;-0.31;83.45
53932;BME280;39844;52.496;13.482;2023-01-28T00:32:04;102555.59;;;-0.32;83.49
53932;BME280;39844;52.496;13.482;2023-01-28T00:34:29;102563.22;;;-0.34;83.61
53932;BME280;39844;52.496;13.482;2023-01-28T00:36:55;102556.28;;;-0.35;83.87
53932;BME280;39844;52.496;13.482;2023-01-28T00:39:20;102555.28;;;-0.37;83.96
53932;BME280;39844;52.496;13.482;2023-01-28T00:41:45;102550.91;;;-0.38;83.81
53932;BME280;39844;52.496;13.482;2023-01-28T00:44:11;102554.28;;;-0.39;83.98
53932;BME280;39844;52.496;13.482;2023-01-28T00:46:36;102555.06;;;-0.40;84.10
53932;BME280;39844;52.496;13.482;2023-01-28T00:49:01;102567.06;;;-0.40;83.95
53932;BME280;39844;52.496;13.482;2023-01-28T00:51:27;102561.03;;;-0.41;83.99
53932;BME280;39844;52.496;13.482;2023-01-28T00:53:52;102559.91;;;-0.44;83.89
53932;BME280;39844;52.496;13.482;2023-01-28T00:56:17;102563.16;;;-0.47;83.91
53932;BME280;39844;52.496;13.482;2023-01-28T00:58:43;102560.59;;;-0.47;84.25
53932;BME280;39844;52.496;13.482;2023-01-28T01:01:23;102566.44;;;-0.49;84.30
53932;BME280;39844;52.496;13.482;2023-01-28T01:03:49;102577.44;;;-0.52;84.33
53932;BME280;39844;52.496;13.482;2023-01-28T01:06:15;102573.84;;;-0.54;84.55
53932;BME280;39844;52.496;13.482;2023-01-28T01:08:41;102572.94;;;-0.54;84.49
53932;BME280;39844;52.496;13.482;2023-01-28T01:11:08;102572.72;;;-0.57;84.70
53932;BME280;39844;52.496;13.482;2023-01-28T01:13:33;102576.88;;;-0.59;84.86
53932;BME280;39844;52.496;13.482;2023-01-28T01:16:04;102568.25;;;-0.60;84.92
53932;BME280;39844;52.496;13.482;2023-01-28T01:18:30;102571.59;;;-0.61;84.87
53932;BME280;39844;52.496;13.482;2023-01-28T01:20:55;102569.84;;;-0.62;84.83
53932;BME280;39844;52.496;13.482;2023-01-28T01:23:20;102568.03;;;-0.63;85.26
53932;BME280;39844;52.496;13.482;2023-01-28T01:25:46;102575.00;;;-0.62;85.38
53932;BME280;39844;52.496;13.482;2023-01-28T01:28:11;102577.56;;;-0.62;85.39
53932;BME280;39844;52.496;13.482;2023-01-28T01:30:36;102581.16;;;-0.60;85.77
53932;BME280;39844;52.496;13.482;2023-01-28T01:33:02;102569.16;;;-0.59;85.96
53932;BME280;39844;52.496;13.482;2023-01-28T01:35:27;102563.31;;;-0.57;85.73
53932;BME280;39844;52.496;13.482;2023-01-28T01:37:52;102568.69;;;-0.54;85.88
53932;BME280;39844;52.496;13.482;2023-01-28T01:40:17;102570.59;;;-0.51;85.62
53932;BME280;39844;52.496;13.482;2023-01-28T01:42:43;102568.22;;;-0.48;85.39
53932;BME280;39844;52.496;13.482;2023-01-28T01:45:12;102578.72;;;-0.45;85.13
53932;BME280;39844;52.496;13.482;2023-01-28T01:48:05;102569.53;;;-0.42;85.06
53932;BME280;39844;52.496;13.482;2023-01-28T01:50:37;102581.84;;;-0.38;84.94
53932;BME280;39844;52.496;13.482;2023-01-28T01:53:09;102586.31;;;-0.35;84.86
53932;BME280;39844;52.496;13.482;2023-01-28T01:55:38;102593.50;;;-0.31;84.46
53932;BME280;39844;52.496;13.482;2023-01-28T01:58:11;102593.59;;;-0.30;84.28
53932;BME280;39844;52.496;13.482;2023-01-28T02:00:39;102586.84;;;-0.28;84.24
53932;BME280;39844;52.496;13.482;2023-01-28T02:03:06;102582.81;;;-0.24;84.04
53932;BME280;39844;52.496;13.482;2023-01-28T02:05:31;102582.91;;;-0.23;83.68
53932;BME280;39844;52.496;13.482;2023-01-28T02:07:57;102589.28;;;-0.18;84.20
53932;BME280;39844;52.496;13.482;2023-01-28T02:10:23;102590.31;;;-0.16;83.95
53932;BME280;39844;52.496;13.482;2023-01-28T02:12:52;102584.47;;;-0.13;83.72
53932;BME280;39844;52.496;13.482;2023-01-28T02:15:20;102583.66;;;-0.12;83.48
53932;BME280;39844;52.496;13.482;2023-01-28T02:17:48;102580.28;;;-0.11;83.12
53932;BME280;39844;52.496;13.482;2023-01-28T02:29:14;102576.78;;;0.00;83.04
53932;BME280;39844;52.496;13.482;2023-01-28T02:31:53;102583.69;;;0.01;82.58
53932;BME280;39844;52.496;13.482;2023-01-28T02:36:59;102572.69;;;0.04;82.16
53932;BME280;39844;52.496;13.482;2023-01-28T02:39:35;102576.25;;;0.06;81.64
53932;BME280;39844;52.496;13.482;2023-01-28T02:42:12;102577.16;;;0.06;81.74
53932;BME280;39844;52.496;13.482;2023-01-28T02:44:39;102591.19;;;0.10;82.06
53932;BME280;39844;52.496;13.482;2023-01-28T02:47:11;102588.59;;;0.10;81.62
53932;BME280;39844;52.496;13.482;2023-01-28T02:49:47;102593.97;;;0.13;81.58
53932;BME280;39844;52.496;13.482;2023-01-28T02:57:47;102579.69;;;0.18;81.57
53932;BME280;39844;52.496;13.482;2023-01-28T03:00:25;102581.59;;;0.20;82.03
53932;BME280;39844;52.496;13.482;2023-01-28T03:05:36;102583.47;;;0.23;81.85
53932;BME280;39844;52.496;13.482;2023-01-28T03:08:04;102580.00;;;0.22;81.50
53932;BME280;39844;52.496;13.482;2023-01-28T03:10:30;102588.66;;;0.23;80.93
53932;BME280;39844;52.496;13.482;2023-01-28T03:12:56;102591.22;;;0.23;81.27
53932;BME280;39844;52.496;13.482;2023-01-28T03:15:25;102593.00;;;0.24;80.73
53932;BME280;39844;52.496;13.482;2023-01-28T03:17:57;102594.81;;;0.25;80.62
53932;BME280;39844;52.496;13.482;2023-01-28T03:20:29;102591.41;;;0.26;80.49
53932;BME280;39844;52.496;13.482;2023-01-28T03:23:02;102592.31;;;0.26;80.13
53932;BME280;39844;52.496;13.482;2023-01-28T03:25:27;102586.38;;;0.27;80.20
53932;BME280;39844;52.496;13.482;2023-01-28T03:27:56;102589.84;;;0.28;80.08
53932;BME280;39844;52.496;13.482;2023-01-28T03:30:34;102589.84;;;0.28;79.72
53932;BME280;39844;52.496;13.482;2023-01-28T03:33:02;102589.84;;;0.28;79.52
53932;BME280;39844;52.496;13.482;2023-01-28T03:35:31;102591.53;;;0.27;79.73
53932;BME280;39844;52.496;13.482;2023-01-28T03:37:57;102592.44;;;0.28;79.67
53932;BME280;39844;52.496;13.482;2023-01-28T03:40:23;102587.97;;;0.25;78.77
53932;BME280;39844;52.496;13.482;2023-01-28T03:42:48;102586.25;;;0.26;78.89
53932;BME280;39844;52.496;13.482;2023-01-28T03:45:13;102587.06;;;0.25;78.73
53932;BME280;39844;52.496;13.482;2023-01-28T03:47:38;102582.88;;;0.27;78.78
53932;BME280;39844;52.496;13.482;2023-01-28T03:50:04;102588.03;;;0.27;78.61
53932;BME280;39844;52.496;13.482;2023-01-28T03:52:31;102580.38;;;0.28;78.45
53932;BME280;39844;52.496;13.482;2023-01-28T03:54:56;102584.00;;;0.30;78.06
53932;BME280;39844;52.496;13.482;2023-01-28T03:57:24;102579.69;;;0.31;77.99
53932;BME280;39844;52.496;13.482;2023-01-28T03:59:50;102579.81;;;0.32;77.72
53932;BME280;39844;52.496;13.482;2023-01-28T04:02:16;102588.47;;;0.33;77.13
53932;BME280;39844;52.496;13.482;2023-01-28T04:04:41;102578.22;;;0.34;76.95
53932;BME280;39844;52.496;13.482;2023-01-28T04:07:09;102581.72;;;0.35;76.28
53932;BME280;39844;52.496;13.482;2023-01-28T04:09:36;102581.78;;;0.36;75.73
53932;BME280;39844;52.496;13.482;2023-01-28T04:12:02;102586.28;;;0.39;75.22
53932;BME280;39844;52.496;13.482;2023-01-28T04:14:28;102589.84;;;0.41;74.84
53932;BME280;39844;52.496;13.482;2023-01-28T04:16:54;102589.97;;;0.42;74.42
53932;BME280;39844;52.496;13.482;2023-01-28T04:19:20;102578.03;;;0.44;74.34
53932;BME280;39844;52.496;13.482;2023-01-28T04:21:46;102584.31;;;0.48;74.34
53932;BME280;39844;52.496;13.482;2023-01-28T04:24:11;102581.81;;;0.49;74.30
53932;BME280;39844;52.496;13.482;2023-01-28T04:26:37;102582.72;;;0.50;73.56
53932;BME280;39844;52.496;13.482;2023-01-28T04:29:02;102581.13;;;0.52;73.98
53932;BME280;39844;52.496;13.482;2023-01-28T04:31:28;102580.34;;;0.53;74.31
53932;BME280;39844;52.496;13.482;2023-01-28T04:33:53;102578.63;;;0.53;74.12
53932;BME280;39844;52.496;13.482;2023-01-28T04:36:18;102584.69;;;0.54;73.54
53932;BME280;39844;52.496;13.482;2023-01-28T04:38:43;102576.94;;;0.54;73.46
53932;BME280;39844;52.496;13.482;2023-01-28T04:41:09;102583.81;;;0.53;72.62
53932;BME280;39844;52.496;13.482;2023-01-28T04:43:34;102586.50;;;0.55;72.51
53932;BME280;39844;52.496;13.482;2023-01-28T04:46:00;102588.28;;;0.56;71.75
53932;BME280;39844;52.496;13.482;2023-01-28T04:48:25;102584.13;;;0.58;71.94
53932;BME280;39844;52.496;13.482;2023-01-28T04:50:50;102579.88;;;0.58;71.62
53932;BME280;39844;52.496;13.482;2023-01-28T04:53:16;102579.94;;;0.60;71.34
53932;BME280;39844;52.496;13.482;2023-01-28T04:55:41;102587.00;;;0.62;71.48
53932;BME280;39844;52.496;13.482;2023-01-28T04:58:08;102577.66;;;0.64;70.66
53932;BME280;39844;52.496;13.482;2023-01-28T05:00:33;102581.94;;;0.64;70.60
53932;BME280;39844;52.496;13.482;2023-01-28T05:02:58;102581.22;;;0.67;71.95
53932;BME280;39844;52.496;13.482;2023-01-28T05:05:24;102576.97;;;0.67;70.96
53932;BME280;39844;52.496;13.482;2023-01-28T05:07:53;102576.19;;;0.68;71.13
53932;BME280;39844;52.496;13.482;2023-01-28T05:10:19;102583.94;;;0.68;70.73
53932;BME280;39844;52.496;13.482;2023-01-28T05:12:46;102584.03;;;0.70;70.45
53932;BME280;39844;52.496;13.482;2023-01-28T05:15:12;102592.69;;;0.70;69.84
53932;BME280;39844;52.496;13.482;2023-01-28T05:17:37;102599.66;;;0.71;69.73
53932;BME280;39844;52.496;13.482;2023-01-28T05:20:04;102597.16;;;0.73;69.27
53932;BME280;39844;52.496;13.482;2023-01-28T05:22:29;102599.81;;;0.74;69.39
53932;BME280;39844;52.496;13.482;2023-01-28T05:24:56;102610.38;;;0.77;69.68
53932;BME280;39844;52.496;13.482;2023-01-28T05:27:21;102611.28;;;0.78;69.24
53932;BME280;39844;52.496;13.482;2023-01-28T05:29:47;102606.09;;;0.78;69.25
53932;BME280;39844;52.496;13.482;2023-01-28T05:32:12;102609.69;;;0.80;69.91
53932;BME280;39844;52.496;13.482;2023-01-28T05:34:37;102605.41;;;0.80;69.18
53932;BME280;39844;52.496;13.482;2023-01-28T05:37:02;102599.47;;;0.81;69.04
53932;BME280;39844;52.496;13.482;2023-01-28T05:39:28;102602.91;;;0.82;69.31
53932;BME280;39844;52.496;13.482;2023-01-28T05:41:53;102607.22;;;0.81;69.35
53932;BME280;39844;52.496;13.482;2023-01-28T05:44:18;102606.41;;;0.82;69.12
53932;BME280;39844;52.496;13.482;2023-01-28T05:46:44;102601.44;;;0.85;69.16
53932;BME280;39844;52.496;13.482;2023-01-28T05:49:10;102598.84;;;0.85;69.09
53932;BME280;39844;52.496;13.482;2023-01-28T05:51:35;102603.22;;;0.86;68.91
53932;BME280;39844;52.496;13.482;2023-01-28T05:54:00;102602.41;;;0.87;69.41
53932;BME280;39844;52.496;13.482;2023-01-28T05:56:25;102601.50;;;0.87;69.88
53932;BME280;39844;52.496;13.482;2023-01-28T05:58:51;102614.56;;;0.88;69.79
53932;BME280;39844;52.496;13.482;2023-01-28T06:01:16;102602.41;;;0.87;69.42
53932;BME280;39844;52.496;13.482;2023-01-28T06:03:41;102608.50;;;0.88;69.64
53932;BME280;39844;52.496;13.482;2023-01-28T06:06:07;102611.16;;;0.89;69.35
53932;BME280;39844;52.496;13.482;2023-01-28T06:08:32;102603.53;;;0.91;69.44
53932;BME280;39844;52.496;13.482;2023-01-28T06:10:57;102607.78;;;0.90;68.52
53932;BME280;39844;52.496;13.482;2023-01-28T06:13:22;102612.19;;;0.91;68.56
53932;BME280;39844;52.496;13.482;2023-01-28T06:15:48;102612.25;;;0.93;69.46
53932;BME280;39844;52.496;13.482;2023-01-28T06:18:14;102613.16;;;0.93;70.30
53932;BME280;39844;52.496;13.482;2023-01-28T06:20:39;102613.38;;;0.96;71.71
53932;BME280;39844;52.496;13.482;2023-01-28T06:23:04;102611.66;;;0.97;71.03
53932;BME280;39844;52.496;13.482;2023-01-28T06:25:29;102604.59;;;0.94;70.63
53932;BME280;39844;52.496;13.482;2023-01-28T06:27:55;102604.59;;;0.94;70.89
53932;BME280;39844;52.496;13.482;2023-01-28T06:30:20;102616.53;;;0.92;69.80
53932;BME280;39844;52.496;13.482;2023-01-28T06:32:45;102621.69;;;0.92;69.76
53932;BME280;39844;52.496;13.482;2023-01-28T06:35:11;102616.53;;;0.92;69.69
53932;BME280;39844;52.496;13.482;2023-01-28T06:37:36;102618.34;;;0.93;69.44
53932;BME280;39844;52.496;13.482;2023-01-28T06:40:02;102620.91;;;0.93;69.05
53932;BME280;39844;52.496;13.482;2023-01-28T06:42:27;102620.09;;;0.94;68.50
53932;BME280;39844;52.496;13.482;2023-01-28T06:44:53;102618.41;;;0.95;68.86
53932;BME280;39844;52.496;13.482;2023-01-28T06:47:18;102618.53;;;0.96;68.49
53932;BME280;39844;52.496;13.482;2023-01-28T06:49:43;102630.66;;;0.97;68.62
53932;BME280;39844;52.496;13.482;2023-01-28T06:52:09;102622.13;;;0.98;68.52
53932;BME280;39844;52.496;13.482;2023-01-28T06:54:34;102627.28;;;0.98;68.56
53932;BME280;39844;52.496;13.482;2023-01-28T06:56:59;102624.00;;;1.01;69.48
53932;BME280;39844;52.496;13.482;2023-01-28T06:59:24;102626.69;;;1.02;70.56
53932;BME280;39844;52.496;13.482;2023-01-28T07:01:50;102628.47;;;1.03;70.70
53932;BME280;39844;52.496;13.482;2023-01-28T07:04:15;102626.69;;;1.02;70.31
53932;BME280;39844;52.496;13.482;2023-01-28T07:06:41;102633.53;;;1.02;70.28
53932;BME280;39844;52.496;13.482;2023-01-28T07:09:06;102626.69;;;1.02;70.88
53932;BME280;39844;52.496;13.482;2023-01-28T07:11:31;102633.66;;;1.03;70.82
53932;BME280;39844;52.496;13.482;2023-01-28T07:13:56;102628.34;;;1.02;70.49
53932;BME280;39844;52.496;13.482;2023-01-28T07:16:22;102633.53;;;1.02;70.35
53932;BME280;39844;52.496;13.482;2023-01-28T07:18:47;102637.84;;;1.01;69.48
53932;BME280;39844;52.496;13.482;2023-01-28T07:21:12;102641.41;;;1.03;69.27
53932;BME280;39844;52.496;13.482;2023-01-28T07:23:37;102641.41;;;1.03;68.94
53932;BME280;39844;52.496;13.482;2023-01-28T07:26:03;102639.72;;;1.04;67.78
53932;BME280;39844;52.496;13.482;2023-01-28T07:28:29;102631.16;;;1.05;67.79
53932;BME280;39844;52.496;13.482;2023-01-28T07:30:54;102630.38;;;1.06;67.42
53932;BME280;39844;52.496;13.482;2023-01-28T07:33:20;102638.31;;;1.09;67.56
53932;BME280;39844;52.496;13.482;2023-01-28T07:35:47;102635.81;;;1.10;67.32
53932;BME280;39844;52.496;13.482;2023-01-28T07:38:12;102641.91;;;1.11;67.01
53932;BME280;39844;52.496;13.482;2023-01-28T07:40:37;102627.38;;;1.13;67.14
53932;BME280;39844;52.496;13.482;2023-01-28T07:43:03;102632.75;;;1.16;67.33
53932;BME280;39844;52.496;13.482;2023-01-28T07:45:29;102628.47;;;1.16;67.52
53932;BME280;39844;52.496;13.482;2023-01-28T07:47:56;102641.50;;;1.18;67.06
53932;BME280;39844;52.496;13.482;2023-01-28T07:50:22;102632.03;;;1.18;66.56
53932;BME280;39844;52.496;13.482;2023-01-28T07:52:47;102637.31;;;1.20;66.43
53932;BME280;39844;52.496;13.482;2023-01-28T07:55:12;102633.03;;;1.20;65.25
53932;BME280;39844;52.496;13.482;2023-01-28T07:57:47;102638.50;;;1.25;65.73
53932;BME280;39844;52.496;13.482;2023-01-28T08:00:13;102632.63;;;1.27;66.04
53932;BME280;39844;52.496;13.482;2023-01-28T08:02:38;102630.16;;;1.29;66.54
53932;BME280;39844;52.496;13.482;2023-01-28T08:05:04;102638.13;;;1.32;66.86
53932;BME280;39844;52.496;13.482;2023-01-28T08:07:29;102632.25;;;1.35;67.35
53932;BME280;39844;52.496;13.482;2023-01-28T08:09:54;102640.16;;;1.38;68.06
53932;BME280;39844;52.496;13.482;2023-01-28T08:12:20;102648.94;;;1.40;68.34
53932;BME280;39844;52.496;13.482;2023-01-28T08:14:45;102654.28;;;1.43;67.94
53932;BME280;39844;52.496;13.482;2023-01-28T08:17:10;102655.31;;;1.45;67.22
53932;BME280;39844;52.496;13.482;2023-01-28T08:19:35;102653.72;;;1.47;67.84
53932;BME280;39844;52.496;13.482;2023-01-28T08:22:01;102656.50;;;1.50;68.27
53932;BME280;39844;52.496;13.482;2023-01-28T08:24:26;102654.19;;;1.54;68.83
53932;BME280;39844;52.496;13.482;2023-01-28T08:26:51;102661.25;;;1.57;68.61
53932;BME280;39844;52.496;13.482;2023-01-28T08:29:17;102651.97;;;1.60;69.26
53932;BME280;39844;52.496;13.482;2023-01-28T08:31:42;102654.56;;;1.60;67.03
53932;BME280;39844;52.496;13.482;2023-01-28T08:34:07;102659.66;;;1.59;65.44
53932;BME280;39844;52.496;13.482;2023-01-28T08:36:33;102670.09;;;1.60;64.92
53932;BME280;39844;52.496;13.482;2023-01-28T08:38:58;102677.97;;;1.62;65.01
53932;BME280;39844;52.496;13.482;2023-01-28T08:41:23;102678.16;;;1.65;64.68
53932;BME280;39844;52.496;13.482;2023-01-28T08:43:49;102675.88;;;1.69;65.29
53932;BME280;39844;52.496;13.482;2023-01-28T08:46:14;102673.56;;;1.74;64.85
53932;BME280;39844;52.496;13.482;2023-01-28T08:48:40;102675.34;;;1.75;64.42
53932;BME280;39844;52.496;13.482;2023-01-28T08:51:05;102678.16;;;1.78;63.94
53932;BME280;39844;52.496;13.482;2023-01-28T08:53:31;102673.13;;;1.81;63.53
53932;BME280;39844;52.496;13.482;2023-01-28T08:55:56;102674.16;;;1.83;63.54
53932;BME280;39844;52.496;13.482;2023-01-28T08:58:21;102681.91;;;1.83;62.39
53932;BME280;39844;52.496;13.482;2023-01-28T09:00:47;102681.81;;;1.81;61.86
53932;BME280;39844;52.496;13.482;2023-01-28T09:03:13;102681.91;;;1.83;61.23
53932;BME280;39844;52.496;13.482;2023-01-28T09:05:38;102685.50;;;1.85;61.15
53932;BME280;39844;52.496;13.482;2023-01-28T09:08:13;102688.44;;;1.91;61.80
53932;BME280;39844;52.496;13.482;2023-01-28T09:10:39;102688.63;;;1.94;61.53
53932;BME280;39844;52.496;13.482;2023-01-28T09:13:09;102687.22;;;1.99;61.92
53932;BME280;39844;52.496;13.482;2023-01-28T09:15:36;102684.84;;;2.02;61.85
53932;BME280;39844;52.496;13.482;2023-01-28T09:18:01;102694.28;;;2.02;60.84
53932;BME280;39844;52.496;13.482;2023-01-28T09:20:26;102695.09;;;2.01;60.30
53932;BME280;39844;52.496;13.482;2023-01-28T09:22:52;102709.75;;;2.00;60.20
53932;BME280;39844;52.496;13.482;2023-01-28T09:25:18;102715.13;;;2.03;60.88
53932;BME280;39844;52.496;13.482;2023-01-28T09:27:43;102711.72;;;2.04;60.47
53932;BME280;39844;52.496;13.482;2023-01-28T09:30:09;102716.09;;;2.05;60.16
53932;BME280;39844;52.496;13.482;2023-01-28T09:32:34;102716.09;;;2.05;59.98
53932;BME280;39844;52.496;13.482;2023-01-28T09:34:59;102714.41;;;2.06;60.16
53932;BME280;39844;52.496;13.482;2023-01-28T09:37:25;102715.47;;;2.09;60.46
53932;BME280;39844;52.496;13.482;2023-01-28T09:39:51;102719.94;;;2.12;60.21
53932;BME280;39844;52.496;13.482;2023-01-28T09:45:15;102709.34;;;2.22;60.75
53932;BME280;39844;52.496;13.482;2023-01-28T09:47:51;102716.63;;;2.27;60.51
53932;BME280;39844;52.496;13.482;2023-01-28T09:52:49;102713.03;;;2.25;59.08
53932;BME280;39844;52.496;13.482;2023-01-28T09:55:38;102723.41;;;2.25;59.16
53932;BME280;39844;52.496;13.482;2023-01-28T09:58:06;102723.28;;;2.24;59.11
53932;BME280;39844;52.496;13.482;2023-01-28T10:00:41;102725.88;;;2.24;58.65
53932;BME280;39844;52.496;13.482;2023-01-28T10:03:26;102718.94;;;2.23;59.00
53932;BME280;39844;52.496;13.482;2023-01-28T10:06:27;102718.03;;;2.22;59.50
53932;BME280;39844;52.496;13.482;2023-01-28T10:09:07;102725.28;;;2.28;60.33
53932;BME280;39844;52.496;13.482;2023-01-28T10:19:30;102718.22;;;2.25;59.01
53932;BME280;39844;52.496;13.482;2023-01-28T10:22:03;102721.59;;;2.24;58.43
53932;BME280;39844;52.496;13.482;2023-01-28T10:24:33;102715.63;;;2.25;58.73
53932;BME280;39844;52.496;13.482;2023-01-28T10:26:59;102718.41;;;2.28;58.74
53932;BME280;39844;52.496;13.482;2023-01-28T10:29:28;102716.69;;;2.29;58.02
53932;BME280;39844;52.496;13.482;2023-01-28T10:32:03;102713.44;;;2.31;58.83
53932;BME280;39844;52.496;13.482;2023-01-28T10:34:29;102710.22;;;2.35;58.65
53932;BME280;39844;52.496;13.482;2023-01-28T10:36:56;102713.59;;;2.34;58.59
53932;BME280;39844;52.496;13.482;2023-01-28T10:39:23;102701.25;;;2.30;58.29
53932;BME280;39844;52.496;13.482;2023-01-28T10:41:49;102704.84;;;2.32;58.70
53932;BME280;39844;52.496;13.482;2023-01-28T10:44:29;102701.66;;;2.36;58.81
53932;BME280;39844;52.496;13.482;2023-01-28T10:46:58;102707.81;;;2.38;58.81
53932;BME280;39844;52.496;13.482;2023-01-28T10:49:27;102698.22;;;2.37;58.63
53932;BME280;39844;52.496;13.482;2023-01-28T10:51:53;102704.50;;;2.41;58.42
53932;BME280;39844;52.496;13.482;2023-01-28T10:54:26;102703.09;;;2.46;58.93
53932;BME280;39844;52.496;13.482;2023-01-28T10:57:00;102705.56;;;2.44;57.73
53932;BME280;39844;52.496;13.482;2023-01-28T10:59:32;102708.88;;;2.42;57.96
53932;BME280;39844;52.496;13.482;2023-01-28T11:02:03;102702.28;;;2.47;58.73
53932;BME280;39844;52.496;13.482;2023-01-28T11:04:34;102705.97;;;2.50;58.69
53932;BME280;39844;52.496;13.482;2023-01-28T11:07:00;102702.72;;;2.54;58.22
53932;BME280;39844;52.496;13.482;2023-01-28T11:09:29;102693.38;;;2.57;58.60
53932;BME280;39844;52.496;13.482;2023-01-28T11:11:55;102689.97;;;2.58;58.34
53932;BME280;39844;52.496;13.482;2023-01-28T11:14:22;102696.13;;;2.60;59.05
53932;BME280;39844;52.496;13.482;2023-01-28T11:16:49;102691.94;;;2.62;58.55
53932;BME280;39844;52.496;13.482;2023-01-28T11:19:17;102690.94;;;2.60;58.38
53932;BME280;39844;52.496;13.482;2023-01-28T11:21:48;102693.44;;;2.58;58.50
53932;BME280;39844;52.496;13.482;2023-01-28T11:24:20;102689.97;;;2.58;58.33
53932;BME280;39844;52.496;13.482;2023-01-28T11:26:48;102694.16;;;2.55;57.89
53932;BME280;39844;52.496;13.482;2023-01-28T11:29:22;102687.81;;;2.50;57.73
53932;BME280;39844;52.496;13.482;2023-01-28T11:31:49;102681.00;;;2.52;58.40
53932;BME280;39844;52.496;13.482;2023-01-28T11:34:16;102678.41;;;2.52;58.20
53932;BME280;39844;52.496;13.482;2023-01-28T11:37:34;102687.09;;;2.53;57.42
53932;BME280;39844;52.496;13.482;2023-01-28T11:39:34;102683.41;;;2.49;57.26
53932;BME280;39844;52.496;13.482;2023-01-28T11:42:20;102669.47;;;2.47;57.40
53932;BME280;39844;52.496;13.482;2023-01-28T11:44:47;102664.28;;;2.47;57.76
53932;BME280;39844;52.496;13.482;2023-01-28T11:47:15;102663.59;;;2.50;58.20
53932;BME280;39844;52.496;13.482;2023-01-28T11:55:40;102661.63;;;2.46;57.72
53932;BME280;39844;52.496;13.482;2023-01-28T12:01:12;102640.00;;;2.45;57.65
53932;BME280;39844;52.496;13.482;2023-01-28T12:06:25;102653.22;;;2.50;57.83
53932;BME280;39844;52.496;13.482;2023-01-28T12:11:45;102649.91;;;2.52;58.10
53932;BME280;39844;52.496;13.482;2023-01-28T12:14:47;102648.94;;;2.50;58.00
53932;BME280;39844;52.496;13.482;2023-01-28T12:23:12;102645.38;;;2.48;58.50
53932;BME280;39844;52.496;13.482;2023-01-28T12:28:33;102646.97;;;2.46;61.21
53932;BME280;39844;52.496;13.482;2023-01-28T12:42:47;102651.41;;;2.34;62.67
53932;BME280;39844;52.496;13.482;2023-01-28T12:47:47;102642.47;;;2.29;64.87
53932;BME280;39844;52.496;13.482;2023-01-28T12:50:22;102629.25;;;2.25;65.40
53932;BME280;39844;52.496;13.482;2023-01-28T12:52:54;102635.31;;;2.25;65.18
53932;BME280;39844;52.496;13.482;2023-01-28T12:55:44;102634.22;;;2.22;64.71
53932;BME280;39844;52.496;13.482;2023-01-28T12:58:17;102627.44;;;2.24;65.13
53932;BME280;39844;52.496;13.482;2023-01-28T13:00:50;102638.69;;;2.24;65.48
53932;BME280;39844;52.496;13.482;2023-01-28T13:03:49;102636.22;;;2.26;65.92
53932;BME280;39844;52.496;13.482;2023-01-28T13:06:32;102630.13;;;2.25;64.43
53932;BME280;39844;52.496;13.482;2023-01-28T13:09:05;102631.91;;;2.26;65.62
53932;BME280;39844;52.496;13.482;2023-01-28T13:11:36;102615.38;;;2.24;65.41
53932;BME280;39844;52.496;13.482;2023-01-28T13:14:03;102620.69;;;2.26;65.19
53932;BME280;39844;52.496;13.482;2023-01-28T13:16:29;102618.94;;;2.26;65.16
53932;BME280;39844;52.496;13.482;2023-01-28T13:19:05;102608.59;;;2.26;65.26
53932;BME280;39844;52.496;13.482;2023-01-28T13:21:33;102607.81;;;2.27;65.29
53932;BME280;39844;52.496;13.482;2023-01-28T13:24:19;102587.06;;;2.27;65.47
53932;BME280;39844;52.496;13.482;2023-01-28T13:31:51;102605.28;;;2.29;65.97
53932;BME280;39844;52.496;13.482;2023-01-28T13:34:38;102590.31;;;2.23;65.11
53932;BME280;39844;52.496;13.482;2023-01-28T13:37:18;102597.97;;;2.22;65.51
53932;BME280;39844;52.496;13.482;2023-01-28T13:39:49;102602.81;;;2.16;65.88
53932;BME280;39844;52.496;13.482;2023-01-28T13:42:27;102591.28;;;2.11;66.43
53932;BME280;39844;52.496;13.482;2023-01-28T13:44:54;102593.66;;;2.08;66.85
53932;BME280;39844;52.496;13.482;2023-01-28T13:47:30;102590.09;;;2.06;67.37
53932;BME280;39844;52.496;13.482;2023-01-28T13:50:12;102597.03;;;2.07;67.72
53932;BME280;39844;52.496;13.482;2023-01-28T13:52:45;102595.53;;;2.10;68.03
53932;BME280;39844;52.496;13.482;2023-01-28T14:00:40;102597.44;;;2.13;66.30
53932;BME280;39844;52.496;13.482;2023-01-28T14:09:13;102579.75;;;2.20;64.99
53932;BME280;39844;52.496;13.482;2023-01-28T14:14:39;102582.88;;;2.29;64.86
53932;BME280;39844;52.496;13.482;2023-01-28T14:19:47;102580.09;;;2.26;63.56
53932;BME280;39844;52.496;13.482;2023-01-28T14:22:17;102575.81;;;2.27;63.92
53932;BME280;39844;52.496;13.482;2023-01-28T14:24:44;102562.78;;;2.25;63.59